createdAt,value
2023-01-12T00:00:46.178Z,0
2023-01-12T00:02:52.819Z,0
2023-01-12T00:05:01.094Z,0
2023-01-12T00:07:07.271Z,0
2023-01-12T00:08:09.991Z,0
2023-01-12T00:09:13.379Z,0
2023-01-12T00:10:16.100Z,0
2023-01-12T00:12:22.689Z,0
2023-01-12T00:13:25.875Z,0
2023-01-12T00:14:29.624Z,0
2023-01-12T00:15:33.093Z,0
2023-01-12T00:17:40.015Z,0
2023-01-12T00:18:42.887Z,0
2023-01-12T00:20:49.704Z,0
2023-01-12T00:22:56.400Z,0
2023-01-12T00:25:03.419Z,0
2023-01-12T00:26:06.554Z,0
2023-01-12T00:28:13.832Z,0
2023-01-12T00:30:19.463Z,0
2023-01-12T00:32:25.198Z,0
2023-01-12T00:33:28.249Z,0
2023-01-12T00:35:36.290Z,0
2023-01-12T00:37:41.986Z,0
2023-01-12T00:40:05.108Z,0
2023-01-12T00:41:08.519Z,0
2023-01-12T00:42:11.259Z,0
2023-01-12T00:43:14.614Z,0
2023-01-12T00:45:20.215Z,0
2023-01-12T00:46:23.598Z,0
2023-01-12T00:48:29.960Z,0
2023-01-12T00:50:35.517Z,0
2023-01-12T00:52:41.856Z,0
2023-01-12T00:53:44.914Z,0
2023-01-12T00:55:51.891Z,0
2023-01-12T00:57:57.783Z,0
2023-01-12T01:00:03.762Z,0
2023-01-12T01:01:07.668Z,0
2023-01-12T01:02:12.319Z,0
2023-01-12T01:03:15.555Z,0
2023-01-12T01:05:21.035Z,0
2023-01-12T01:06:23.834Z,0
2023-01-12T01:07:27.969Z,0
2023-01-12T01:08:31.381Z,0
2023-01-12T01:10:38.500Z,0
2023-01-12T01:11:40.669Z,0
2023-01-12T01:12:43.111Z,0
2023-01-12T01:13:45.862Z,0
2023-01-12T01:15:53.138Z,0
2023-01-12T01:17:59.295Z,0
2023-01-12T01:19:02.461Z,0
2023-01-12T01:21:08.729Z,0
2023-01-12T01:23:16.257Z,0
2023-01-12T01:25:22.486Z,0
2023-01-12T01:26:25.821Z,0
2023-01-12T01:28:31.301Z,0
2023-01-12T01:30:37.729Z,0
2023-01-12T01:32:43.914Z,0
2023-01-12T01:33:46.702Z,0
2023-01-12T01:35:52.815Z,0
2023-01-12T01:37:58.742Z,0
2023-01-12T01:40:05.247Z,0
2023-01-12T01:41:08.682Z,0
2023-01-12T01:43:13.995Z,0
2023-01-12T01:45:20.431Z,0
2023-01-12T01:46:23.861Z,0
2023-01-12T01:48:30.694Z,0
2023-01-12T01:50:35.898Z,0
2023-01-12T01:51:39.066Z,0
2023-01-12T01:52:42.151Z,0
2023-01-12T01:53:44.943Z,0
2023-01-12T01:55:51.764Z,0
2023-01-12T01:56:55.150Z,0
2023-01-12T01:59:02.034Z,0
2023-01-12T02:01:07.308Z,0
2023-01-12T02:03:13.660Z,0
2023-01-12T02:04:16.144Z,0
2023-01-12T02:06:22.909Z,0
2023-01-12T02:08:28.189Z,0
2023-01-12T02:10:35.734Z,0
2023-01-12T02:11:38.722Z,0
2023-01-12T02:13:44.847Z,0
2023-01-12T02:15:52.078Z,0
2023-01-12T02:16:54.867Z,0
2023-01-12T02:19:00.427Z,0
2023-01-12T02:20:03.992Z,0
2023-01-12T02:22:10.793Z,0
2023-01-12T02:24:16.563Z,0
2023-01-12T02:26:24.264Z,0
2023-01-12T02:27:27.264Z,0
2023-01-12T02:28:30.274Z,0
2023-01-12T02:29:34.052Z,0
2023-01-12T02:30:37.441Z,0
2023-01-12T02:32:44.408Z,0
2023-01-12T02:33:48.165Z,0
2023-01-12T02:35:53.767Z,0
2023-01-12T02:37:59.837Z,0
2023-01-12T02:39:02.824Z,0
2023-01-12T02:41:09.817Z,0
2023-01-12T02:43:17.137Z,0
2023-01-12T02:44:20.842Z,0
2023-01-12T02:46:26.926Z,0
2023-01-12T02:48:34.058Z,0
2023-01-12T02:49:37.741Z,0
2023-01-12T02:51:43.066Z,0
2023-01-12T02:53:48.974Z,0
2023-01-12T02:55:55.025Z,0
2023-01-12T02:56:58.626Z,0
2023-01-12T02:59:05.728Z,0
2023-01-12T03:01:12.268Z,0
2023-01-12T03:02:15.411Z,0
2023-01-12T03:03:19.042Z,0
2023-01-12T03:04:22.381Z,0
2023-01-12T03:06:28.916Z,0
2023-01-12T03:07:31.641Z,0
2023-01-12T03:09:36.963Z,0
2023-01-12T03:11:43.227Z,0
2023-01-12T03:12:46.363Z,0
2023-01-12T03:13:50.135Z,0
2023-01-12T03:14:53.763Z,0
2023-01-12T03:17:00.663Z,0
2023-01-12T03:18:03.744Z,0
2023-01-12T03:20:09.267Z,0
2023-01-12T03:21:11.590Z,0
2023-01-12T03:22:14.899Z,0
2023-01-12T03:23:17.645Z,0
2023-01-12T03:25:24.098Z,0
2023-01-12T03:26:27.457Z,0
2023-01-12T03:28:33.804Z,0
2023-01-12T03:30:40.534Z,0
2023-01-12T03:31:43.671Z,0
2023-01-12T03:32:46.826Z,0
2023-01-12T03:33:49.657Z,0
2023-01-12T03:35:55.016Z,0
2023-01-12T03:36:58.140Z,0
2023-01-12T03:39:04.615Z,0
2023-01-12T03:41:11.070Z,0
2023-01-12T03:42:13.927Z,0
2023-01-12T03:44:19.883Z,0
2023-01-12T03:45:23.737Z,0
2023-01-12T03:46:27.452Z,0
2023-01-12T03:47:30.508Z,0
2023-01-12T03:49:37.097Z,0
2023-01-12T03:50:40.435Z,0
2023-01-12T03:52:46.571Z,0
2023-01-12T03:54:52.650Z,0
2023-01-12T03:55:56.056Z,0
2023-01-12T03:58:02.548Z,0
2023-01-12T04:00:09.300Z,0
2023-01-12T04:02:16.367Z,0
2023-01-12T04:03:19.569Z,0
2023-01-12T04:04:22.950Z,0
2023-01-12T04:05:25.941Z,0
2023-01-12T04:07:31.231Z,0
2023-01-12T04:08:34.295Z,0
2023-01-12T04:09:37.124Z,0
2023-01-12T04:10:40.374Z,0
2023-01-12T04:12:46.347Z,0
2023-01-12T04:13:49.504Z,0
2023-01-12T04:14:51.942Z,0
2023-01-12T04:15:55.094Z,0
2023-01-12T04:18:01.097Z,0
2023-01-12T04:19:03.822Z,0
2023-01-12T04:20:06.618Z,0
2023-01-12T04:21:09.945Z,0
2023-01-12T04:23:15.473Z,0
2023-01-12T04:24:19.635Z,0
2023-01-12T04:25:21.840Z,0
2023-01-12T04:26:25.284Z,0
2023-01-12T04:28:32.262Z,0
2023-01-12T04:30:38.075Z,0
2023-01-12T04:31:41.842Z,0
2023-01-12T04:33:49.038Z,0
2023-01-12T04:35:54.607Z,0
2023-01-12T04:38:00.827Z,0
2023-01-12T04:39:04.188Z,0
2023-01-12T04:41:10.849Z,0
2023-01-12T04:43:17.029Z,0
2023-01-12T04:45:22.721Z,0
2023-01-12T04:46:26.128Z,0
2023-01-12T04:48:34.101Z,0
2023-01-12T04:50:40.365Z,0
2023-01-12T04:52:46.004Z,0
2023-01-12T04:53:48.747Z,0
2023-01-12T04:55:54.349Z,0
2023-01-12T04:58:00.400Z,0
2023-01-12T05:00:07.285Z,0
2023-01-12T05:01:11.626Z,0
2023-01-12T05:03:18.861Z,0
2023-01-12T05:05:26.481Z,0
2023-01-12T05:07:32.665Z,0
2023-01-12T05:08:36.034Z,0
2023-01-12T05:10:41.612Z,0
2023-01-12T05:12:48.365Z,0
2023-01-12T05:14:54.180Z,0
2023-01-12T05:15:56.930Z,0
2023-01-12T05:18:02.498Z,0
2023-01-12T05:20:09.341Z,0
2023-01-12T05:22:15.377Z,0
2023-01-12T05:23:18.506Z,0
2023-01-12T05:25:25.284Z,0
2023-01-12T05:27:31.504Z,0
2023-01-12T05:29:37.334Z,0
2023-01-12T05:30:40.409Z,0
2023-01-12T05:32:45.718Z,0
2023-01-12T05:34:51.989Z,0
2023-01-12T05:35:55.795Z,0
2023-01-12T05:38:01.840Z,0
2023-01-12T05:40:07.163Z,0
2023-01-12T05:42:13.103Z,0
2023-01-12T05:43:16.779Z,0
2023-01-12T05:45:22.715Z,0
2023-01-12T05:47:29.243Z,0
2023-01-12T05:48:31.957Z,0
2023-01-12T05:49:35.596Z,0
2023-01-12T05:50:39.684Z,0
2023-01-12T05:52:46.912Z,0
2023-01-12T05:54:53.004Z,0
2023-01-12T05:55:56.113Z,0
2023-01-12T05:58:01.745Z,0
2023-01-12T06:00:08.329Z,0
2023-01-12T06:01:12.197Z,0
2023-01-12T06:03:17.529Z,0
2023-01-12T06:05:24.222Z,0
2023-01-12T06:07:31.150Z,0
2023-01-12T06:08:34.143Z,0
2023-01-12T06:10:39.932Z,0
2023-01-12T06:12:45.885Z,0
2023-01-12T06:14:52.053Z,0
2023-01-12T06:15:55.452Z,0
2023-01-12T06:18:01.380Z,0
2023-01-12T06:20:07.419Z,0
2023-01-12T06:22:13.999Z,0
2023-01-12T06:23:17.746Z,0
2023-01-12T06:25:22.998Z,0
2023-01-12T06:27:29.401Z,0
2023-01-12T06:28:31.935Z,0
2023-01-12T06:29:35.010Z,0
2023-01-12T06:30:38.493Z,0
2023-01-12T06:32:43.824Z,0
2023-01-12T06:33:46.705Z,0
2023-01-12T06:34:50.327Z,0
2023-01-12T06:35:53.384Z,0
2023-01-12T06:37:59.468Z,0
2023-01-12T06:39:02.996Z,0
2023-01-12T06:40:06.432Z,0
2023-01-12T06:41:09.866Z,0
2023-01-12T06:43:15.706Z,0
2023-01-12T06:45:21.746Z,0
2023-01-12T06:46:25.191Z,0
2023-01-12T06:48:41.587Z,0
2023-01-12T06:50:47.733Z,0
2023-01-12T06:52:52.988Z,0
2023-01-12T06:53:56.397Z,0
2023-01-12T06:56:02.902Z,0
2023-01-12T06:58:10.331Z,0
2023-01-12T07:00:16.675Z,0
2023-01-12T07:01:20.729Z,0
2023-01-12T07:02:23.908Z,0
2023-01-12T07:03:26.739Z,0
2023-01-12T07:05:33.550Z,0
2023-01-12T07:06:36.732Z,0
2023-01-12T07:07:42.804Z,0
2023-01-12T07:08:45.608Z,0
2023-01-12T07:10:53.184Z,0
2023-01-12T07:12:59.605Z,0
2023-01-12T07:14:02.666Z,0
2023-01-12T07:16:09.454Z,0
2023-01-12T07:18:16.711Z,0
2023-01-12T07:20:22.796Z,0
2023-01-12T07:21:26.156Z,0
2023-01-12T07:23:32.043Z,0
2023-01-12T07:25:38.860Z,0
2023-01-12T07:27:46.275Z,0
2023-01-12T07:28:49.631Z,0
2023-01-12T07:30:55.785Z,0
2023-01-12T07:33:01.806Z,0
2023-01-12T07:35:08.048Z,1
2023-01-12T07:36:11.144Z,1
2023-01-12T07:38:19.038Z,1
2023-01-12T07:40:25.173Z,1
2023-01-12T07:42:32.503Z,2
2023-01-12T07:43:36.137Z,2
2023-01-12T07:44:39.424Z,2
2023-01-12T07:45:42.198Z,3
2023-01-12T07:47:49.551Z,3
2023-01-12T07:48:52.569Z,2
2023-01-12T07:49:55.978Z,3
2023-01-12T07:50:58.510Z,3
2023-01-12T07:53:05.157Z,3
2023-01-12T07:54:08.442Z,3
2023-01-12T07:55:12.160Z,4
2023-01-12T07:56:15.252Z,3
2023-01-12T07:58:22.863Z,4
2023-01-12T08:00:30.143Z,4
2023-01-12T08:01:34.713Z,3
2023-01-12T08:03:40.996Z,3
2023-01-12T08:05:47.273Z,3
2023-01-12T08:07:53.808Z,4
2023-01-12T08:08:57.090Z,6
2023-01-12T08:11:04.233Z,7
2023-01-12T08:13:11.607Z,5
2023-01-12T08:15:18.382Z,8
2023-01-12T08:16:22.224Z,8
2023-01-12T08:18:28.106Z,6
2023-01-12T08:20:34.944Z,6
2023-01-12T08:21:39.030Z,5
2023-01-12T08:22:42.699Z,5
2023-01-12T08:23:46.070Z,6
2023-01-12T08:25:52.290Z,8
2023-01-12T08:26:55.697Z,6
2023-01-12T08:29:02.331Z,8
2023-01-12T08:31:10.031Z,9
2023-01-12T08:32:14.472Z,9
2023-01-12T08:33:17.709Z,11
2023-01-12T08:34:20.982Z,13
2023-01-12T08:36:27.305Z,10
2023-01-12T08:37:31.496Z,9
2023-01-12T08:38:34.295Z,10
2023-01-12T08:39:38.292Z,10
2023-01-12T08:41:45.195Z,9
2023-01-12T08:43:52.298Z,12
2023-01-12T08:44:56.115Z,12
2023-01-12T08:47:03.075Z,13
2023-01-12T08:49:09.344Z,9
2023-01-12T08:51:16.445Z,14
2023-01-12T08:52:19.687Z,14
2023-01-12T08:54:26.512Z,11
2023-01-12T08:56:33.402Z,13
2023-01-12T08:58:39.923Z,9
2023-01-12T08:59:42.797Z,12
2023-01-12T09:01:51.177Z,19
2023-01-12T09:03:57.312Z,13
2023-01-12T09:06:02.559Z,21
2023-01-12T09:07:06.251Z,17
2023-01-12T09:09:12.628Z,16
2023-01-12T09:11:18.677Z,19
2023-01-12T09:13:29.096Z,20
2023-01-12T09:14:32.744Z,24
2023-01-12T09:15:36.505Z,21
2023-01-12T09:16:40.538Z,20
2023-01-12T09:18:47.072Z,17
2023-01-12T09:19:50.160Z,18
2023-01-12T09:20:53.673Z,13
2023-01-12T09:21:56.788Z,12
2023-01-12T09:24:04.621Z,10
2023-01-12T09:26:11.629Z,9
2023-01-12T09:27:15.137Z,11
2023-01-12T09:29:21.187Z,14
2023-01-12T09:31:28.303Z,14
2023-01-12T09:32:39.189Z,13
2023-01-12T09:33:42.787Z,15
2023-01-12T09:34:45.807Z,12
2023-01-12T09:36:52.068Z,12
2023-01-12T09:38:58.004Z,14
2023-01-12T09:41:05.019Z,18
2023-01-12T09:42:07.838Z,23
2023-01-12T09:44:14.287Z,23
2023-01-12T09:46:21.222Z,15
2023-01-12T09:47:24.332Z,18
2023-01-12T09:49:31.599Z,18
2023-01-12T09:51:38.161Z,22
2023-01-12T09:52:42.217Z,26
2023-01-12T09:54:52.199Z,29
2023-01-12T09:56:59.508Z,27
2023-01-12T09:58:02.612Z,32
2023-01-12T10:00:08.584Z,35
2023-01-12T10:01:31.921Z,30
2023-01-12T10:02:36.455Z,23
2023-01-12T10:04:45.518Z,16
2023-01-12T10:05:49.188Z,18
2023-01-12T10:07:55.406Z,18
2023-01-12T10:10:02.187Z,29
2023-01-12T10:11:04.920Z,30
2023-01-12T10:13:11.112Z,24
2023-01-12T10:15:16.872Z,23
2023-01-12T10:16:20.282Z,22
2023-01-12T10:18:27.052Z,23
2023-01-12T10:20:34.386Z,30
2023-01-12T10:21:37.724Z,24
2023-01-12T10:22:40.665Z,18
2023-01-12T10:23:44.341Z,19
2023-01-12T10:25:50.950Z,21
2023-01-12T10:27:58.179Z,24
2023-01-12T10:29:01.983Z,19
2023-01-12T10:31:08.711Z,32
2023-01-12T10:33:15.467Z,28
2023-01-12T10:35:22.354Z,23
2023-01-12T10:36:26.417Z,19
2023-01-12T10:38:32.554Z,22
2023-01-12T10:40:39.011Z,19
2023-01-12T10:41:42.363Z,19
2023-01-12T10:43:48.945Z,19
2023-01-12T10:44:51.490Z,20
2023-01-12T10:46:57.412Z,20
2023-01-12T10:49:03.904Z,21
2023-01-12T10:50:07.546Z,22
2023-01-12T10:52:14.519Z,27
2023-01-12T10:54:22.004Z,26
2023-01-12T10:55:24.529Z,27
2023-01-12T10:56:27.629Z,31
2023-01-12T10:57:30.710Z,32
2023-01-12T10:59:37.322Z,31
2023-01-12T11:00:40.672Z,31
2023-01-12T11:02:48.201Z,23
2023-01-12T11:04:54.851Z,24
2023-01-12T11:07:06.067Z,27
2023-01-12T11:08:09.569Z,31
2023-01-12T11:10:21.974Z,23
2023-01-12T11:11:25.379Z,21
2023-01-12T11:12:31.557Z,19
2023-01-12T11:13:35.041Z,18
2023-01-12T11:14:38.807Z,21
2023-01-12T11:15:42.232Z,17
2023-01-12T11:17:51.963Z,21
2023-01-12T11:18:55.334Z,24
2023-01-12T11:21:01.823Z,24
2023-01-12T11:22:05.282Z,29
2023-01-12T11:23:08.967Z,29
2023-01-12T11:24:12.742Z,22
2023-01-12T11:26:18.771Z,21
2023-01-12T11:27:21.959Z,25
2023-01-12T11:29:28.462Z,23
2023-01-12T11:31:34.963Z,23
2023-01-12T11:32:38.217Z,30
2023-01-12T11:34:44.099Z,33
2023-01-12T11:36:49.599Z,21
2023-01-12T11:37:53.002Z,18
2023-01-12T11:40:00.217Z,23
2023-01-12T11:42:06.087Z,35
2023-01-12T11:43:09.476Z,39
2023-01-12T11:44:12.930Z,40
2023-01-12T11:45:16.038Z,31
2023-01-12T11:47:22.970Z,30
2023-01-12T11:48:26.127Z,27
2023-01-12T11:50:32.032Z,28
2023-01-12T11:52:38.250Z,38
2023-01-12T11:53:43.888Z,55
2023-01-12T11:55:51.379Z,38
2023-01-12T11:57:58.258Z,43
2023-01-12T11:59:02.286Z,52
2023-01-12T12:01:10.662Z,55
2023-01-12T12:02:14.709Z,38
2023-01-12T12:03:19.325Z,40
2023-01-12T12:04:23.023Z,31
2023-01-12T12:06:29.750Z,26
2023-01-12T12:07:33.042Z,26
2023-01-12T12:09:39.862Z,35
2023-01-12T12:10:42.940Z,31
2023-01-12T12:12:50.814Z,28
2023-01-12T12:14:56.654Z,41
2023-01-12T12:16:00.128Z,40
2023-01-12T12:18:07.629Z,46
2023-01-12T12:20:14.074Z,36
2023-01-12T12:21:17.696Z,30
2023-01-12T12:23:24.937Z,44
2023-01-12T12:25:32.195Z,33
2023-01-12T12:27:39.518Z,23
2023-01-12T12:28:43.545Z,23
2023-01-12T12:30:49.257Z,21
2023-01-12T12:31:53.264Z,21
2023-01-12T12:34:00.405Z,14
2023-01-12T12:36:07.854Z,16
2023-01-12T12:37:11.889Z,20
2023-01-12T12:39:19.109Z,26
2023-01-12T12:41:27.248Z,19
2023-01-12T12:42:30.311Z,19
2023-01-12T12:44:37.038Z,23
2023-01-12T12:46:43.588Z,22
2023-01-12T12:47:47.203Z,24
2023-01-12T12:49:53.922Z,22
2023-01-12T12:52:00.946Z,21
2023-01-12T12:53:03.649Z,16
2023-01-12T12:55:10.902Z,26
2023-01-12T12:57:17.558Z,21
2023-01-12T12:58:20.975Z,20
2023-01-12T13:00:28.509Z,14
2023-01-12T13:01:32.637Z,21
2023-01-12T13:02:35.947Z,19
2023-01-12T13:03:39.321Z,24
2023-01-12T13:04:42.695Z,24
2023-01-12T13:05:46.369Z,25
2023-01-12T13:06:50.307Z,28
2023-01-12T13:08:57.859Z,28
2023-01-12T13:10:01.017Z,22
2023-01-12T13:12:07.556Z,24
2023-01-12T13:14:13.715Z,20
2023-01-12T13:15:19.715Z,14
2023-01-12T13:17:26.903Z,13
2023-01-12T13:19:34.746Z,14
2023-01-12T13:21:41.702Z,11
2023-01-12T13:22:45.456Z,11
2023-01-12T13:24:51.670Z,14
2023-01-12T13:26:57.204Z,11
2023-01-12T13:29:04.504Z,18
2023-01-12T13:30:07.338Z,19
2023-01-12T13:32:14.860Z,22
2023-01-12T13:34:21.375Z,15
2023-01-12T13:35:24.167Z,36
2023-01-12T13:37:30.943Z,28
2023-01-12T13:38:34.813Z,21
2023-01-12T13:39:37.922Z,16
2023-01-12T13:40:40.670Z,18
2023-01-12T13:42:47.019Z,16
2023-01-12T13:43:50.429Z,15
2023-01-12T13:44:53.905Z,13
2023-01-12T13:45:57.426Z,17
2023-01-12T13:48:04.868Z,12
2023-01-12T13:49:08.049Z,11
2023-01-12T13:51:14.021Z,22
2023-01-12T13:52:17.817Z,19
2023-01-12T13:54:24.207Z,14
2023-01-12T13:56:30.793Z,14
2023-01-12T13:58:36.954Z,11
2023-01-12T13:59:40.606Z,12
2023-01-12T14:01:47.996Z,13
2023-01-12T14:03:55.820Z,16
2023-01-12T14:04:59.565Z,20
2023-01-12T14:07:06.412Z,26
2023-01-12T14:08:09.318Z,26
2023-01-12T14:09:12.636Z,26
2023-01-12T14:10:19.112Z,26
2023-01-12T14:12:26.365Z,25
2023-01-12T14:13:29.450Z,23
2023-01-12T14:15:35.907Z,24
2023-01-12T14:17:42.218Z,21
2023-01-12T14:18:46.293Z,21
2023-01-12T14:19:49.916Z,19
2023-01-12T14:20:53.311Z,19
2023-01-12T14:23:02.930Z,20
2023-01-12T14:24:05.724Z,21
2023-01-12T14:26:12.187Z,20
2023-01-12T14:28:18.476Z,17
2023-01-12T14:30:25.938Z,21
2023-01-12T14:31:29.879Z,19
2023-01-12T14:33:36.684Z,14
2023-01-12T14:35:43.336Z,11
2023-01-12T14:36:46.513Z,10
2023-01-12T14:38:53.923Z,10
2023-01-12T14:41:00.299Z,9
2023-01-12T14:43:07.432Z,9
2023-01-12T14:44:10.699Z,11
2023-01-12T14:46:17.399Z,13
2023-01-12T14:48:24.297Z,10
2023-01-12T14:50:31.240Z,7
2023-01-12T14:51:34.696Z,7
2023-01-12T14:53:41.011Z,4
2023-01-12T14:55:46.846Z,4
2023-01-12T14:56:50.722Z,3
2023-01-12T14:58:57.414Z,3
2023-01-12T15:01:05.841Z,4
2023-01-12T15:02:09.203Z,5
2023-01-12T15:04:14.892Z,5
2023-01-12T15:05:17.994Z,4
2023-01-12T15:06:21.778Z,4
2023-01-12T15:07:25.775Z,4
2023-01-12T15:09:32.546Z,4
2023-01-12T15:10:36.904Z,4
2023-01-12T15:11:40.931Z,4
2023-01-12T15:12:43.979Z,3
2023-01-12T15:14:50.426Z,2
2023-01-12T15:15:53.700Z,2
2023-01-12T15:16:56.763Z,2
2023-01-12T15:18:00.776Z,1
2023-01-12T15:20:08.202Z,1
2023-01-12T15:22:15.296Z,0
2023-01-12T15:23:18.043Z,0
2023-01-12T15:25:24.599Z,0
2023-01-12T15:27:30.441Z,0
2023-01-12T15:29:37.031Z,0
2023-01-12T15:30:40.546Z,0
2023-01-12T15:32:50.546Z,0
2023-01-12T15:34:57.089Z,0
2023-01-12T15:37:04.364Z,0
2023-01-12T15:38:08.388Z,0
2023-01-12T15:40:15.321Z,0
2023-01-12T15:42:22.196Z,0
2023-01-12T15:44:29.294Z,0
2023-01-12T15:45:33.479Z,0
2023-01-12T15:47:40.379Z,0
2023-01-12T15:49:49.469Z,0
2023-01-12T15:51:56.603Z,0
2023-01-12T15:53:00.700Z,0
2023-01-12T15:55:12.086Z,0
2023-01-12T15:57:19.521Z,0
2023-01-12T15:59:25.861Z,0
2023-01-12T16:00:28.703Z,0
2023-01-12T16:02:35.176Z,0
2023-01-12T16:04:45.689Z,0
2023-01-12T16:05:49.481Z,0
2023-01-12T16:07:56.388Z,0
2023-01-12T16:10:04.099Z,0
2023-01-12T16:12:10.797Z,0
2023-01-12T16:13:14.306Z,0
2023-01-12T16:14:17.949Z,0
2023-01-12T16:15:21.659Z,0
2023-01-12T16:17:28.614Z,0
2023-01-12T16:18:31.977Z,0
2023-01-12T16:19:38.120Z,0
2023-01-12T16:20:41.413Z,0
2023-01-12T16:22:47.919Z,0
2023-01-12T16:24:54.874Z,0
2023-01-12T16:25:59.130Z,0
2023-01-12T16:28:06.707Z,0
2023-01-12T16:30:13.993Z,0
2023-01-12T16:32:20.167Z,0
2023-01-12T16:33:23.597Z,0
2023-01-12T16:35:29.807Z,0
2023-01-12T16:37:35.367Z,0
2023-01-12T16:39:42.262Z,0
2023-01-12T16:40:45.909Z,0
2023-01-12T16:42:52.724Z,0
2023-01-12T16:44:59.546Z,0
2023-01-12T16:46:02.820Z,0
2023-01-12T16:47:05.749Z,0
2023-01-12T16:48:09.485Z,0
2023-01-12T16:50:15.901Z,0
2023-01-12T16:52:22.861Z,0
2023-01-12T16:53:26.511Z,0
2023-01-12T16:55:35.645Z,0
2023-01-12T16:57:43.858Z,0
2023-01-12T16:59:53.508Z,0
2023-01-12T17:00:59.554Z,0
2023-01-12T17:02:05.095Z,0
2023-01-12T17:03:09.971Z,0
2023-01-12T17:05:18.455Z,0
2023-01-12T17:07:26.754Z,0
2023-01-12T17:08:30.702Z,0
2023-01-12T17:10:38.609Z,0
2023-01-12T17:13:04.821Z,0
2023-01-12T17:14:10.920Z,0
2023-01-12T17:15:16.562Z,0
2023-01-12T17:17:25.195Z,0
2023-01-12T17:18:29.481Z,0
2023-01-12T17:20:38.439Z,0
2023-01-12T17:22:46.631Z,0
2023-01-12T17:24:54.453Z,0
2023-01-12T17:25:58.576Z,0
2023-01-12T17:28:06.546Z,0
2023-01-12T17:30:15.867Z,0
2023-01-12T17:32:24.717Z,0
2023-01-12T17:33:28.147Z,0
2023-01-12T17:35:34.628Z,0
2023-01-12T17:37:41.593Z,0
2023-01-12T17:39:48.245Z,0
2023-01-12T17:40:51.984Z,0
2023-01-12T17:42:58.254Z,0
2023-01-12T17:45:06.210Z,0
2023-01-12T17:47:14.074Z,0
2023-01-12T17:48:17.907Z,0
2023-01-12T17:50:24.596Z,0
2023-01-12T17:52:32.046Z,0
2023-01-12T17:54:39.239Z,0
2023-01-12T17:55:54.687Z,0
2023-01-12T17:56:57.712Z,0
2023-01-12T17:58:01.158Z,0
2023-01-12T18:00:08.585Z,0
2023-01-12T18:02:16.863Z,0
2023-01-12T18:04:23.824Z,0
2023-01-12T18:05:27.474Z,0
2023-01-12T18:07:36.829Z,0
2023-01-12T18:09:44.504Z,0
2023-01-12T18:11:51.418Z,0
2023-01-12T18:12:54.578Z,0
2023-01-12T18:15:01.129Z,0
2023-01-12T18:17:09.234Z,0
2023-01-12T18:19:15.381Z,0
2023-01-12T18:20:18.881Z,0
2023-01-12T18:21:23.073Z,0
2023-01-12T18:22:27.086Z,0
2023-01-12T18:24:33.681Z,0
2023-01-12T18:25:36.802Z,0
2023-01-12T18:26:39.906Z,0
2023-01-12T18:27:43.603Z,0
2023-01-12T18:29:51.151Z,0
2023-01-12T18:30:54.792Z,0
2023-01-12T18:33:01.380Z,0
2023-01-12T18:35:08.199Z,0
2023-01-12T18:37:15.941Z,0
2023-01-12T18:38:19.773Z,0
2023-01-12T18:40:26.414Z,0
2023-01-12T18:42:32.899Z,0
2023-01-12T18:44:38.699Z,0
2023-01-12T18:45:42.758Z,0
2023-01-12T18:47:50.021Z,0
2023-01-12T18:49:56.374Z,0
2023-01-12T18:50:59.372Z,0
2023-01-12T18:52:02.644Z,0
2023-01-12T18:53:05.791Z,0
2023-01-12T18:55:12.026Z,0
2023-01-12T18:57:18.273Z,0
2023-01-12T18:58:22.001Z,0
2023-01-12T19:00:27.786Z,0
2023-01-12T19:02:35.445Z,0
2023-01-12T19:04:42.788Z,0
2023-01-12T19:05:45.602Z,0
2023-01-12T19:07:52.376Z,0
2023-01-12T19:09:57.757Z,0
2023-01-12T19:11:04.316Z,0
2023-01-12T19:12:07.727Z,0
2023-01-12T19:13:11.082Z,0
2023-01-12T19:15:17.641Z,0
2023-01-12T19:17:24.141Z,0
2023-01-12T19:18:27.807Z,0
2023-01-12T19:19:31.744Z,0
2023-01-12T19:20:34.471Z,0
2023-01-12T19:22:40.618Z,0
2023-01-12T19:24:47.516Z,0
2023-01-12T19:25:50.507Z,0
2023-01-12T19:27:56.895Z,0
2023-01-12T19:30:02.814Z,0
2023-01-12T19:31:06.077Z,0
2023-01-12T19:32:09.214Z,0
2023-01-12T19:33:12.542Z,0
2023-01-12T19:35:19.382Z,0
2023-01-12T19:37:26.208Z,0
2023-01-12T19:38:29.593Z,0
2023-01-12T19:40:35.089Z,0
2023-01-12T19:42:41.637Z,0
2023-01-12T19:44:48.757Z,0
2023-01-12T19:45:51.848Z,0
2023-01-12T19:47:57.280Z,0
2023-01-12T19:50:03.812Z,0
2023-01-12T19:52:14.660Z,0
2023-01-12T19:53:17.663Z,0
2023-01-12T19:55:23.826Z,0
2023-01-12T19:57:29.800Z,0
2023-01-12T19:58:32.958Z,0
2023-01-12T19:59:36.339Z,0
2023-01-12T20:00:40.098Z,0
2023-01-12T20:02:47.732Z,0
2023-01-12T20:03:51.475Z,0
2023-01-12T20:04:55.274Z,0
2023-01-12T20:05:59.080Z,0
2023-01-12T20:08:05.707Z,0
2023-01-12T20:10:11.846Z,0
2023-01-12T20:11:14.783Z,0
2023-01-12T20:13:20.407Z,0
2023-01-12T20:15:27.129Z,0
2023-01-12T20:17:33.683Z,0
2023-01-12T20:18:36.895Z,0
2023-01-12T20:20:42.771Z,0
2023-01-12T20:22:49.278Z,0
2023-01-12T20:24:54.884Z,0
2023-01-12T20:25:57.869Z,0
2023-01-12T20:28:04.686Z,0
2023-01-12T20:30:10.143Z,0
2023-01-12T20:32:17.463Z,0
2023-01-12T20:33:20.471Z,0
2023-01-12T20:35:26.582Z,0
2023-01-12T20:37:32.190Z,0
2023-01-12T20:38:35.884Z,0
2023-01-12T20:40:41.774Z,0
2023-01-12T20:42:48.311Z,0
2023-01-12T20:44:53.824Z,0
2023-01-12T20:45:56.912Z,0
2023-01-12T20:48:03.446Z,0
2023-01-12T20:50:10.195Z,0
2023-01-12T20:52:17.829Z,0
2023-01-12T20:53:21.871Z,0
2023-01-12T20:55:28.637Z,0
2023-01-12T20:57:35.638Z,0
2023-01-12T20:59:41.454Z,0
2023-01-12T21:00:45.446Z,0
2023-01-12T21:02:53.134Z,0
2023-01-12T21:04:59.363Z,0
2023-01-12T21:07:05.928Z,0
2023-01-12T21:08:10.799Z,0
2023-01-12T21:10:18.017Z,0
2023-01-12T21:12:28.596Z,0
2023-01-12T21:14:34.795Z,0
2023-01-12T21:15:37.289Z,0
2023-01-12T21:16:40.867Z,0
2023-01-12T21:17:44.578Z,0
2023-01-12T21:19:50.290Z,0
2023-01-12T21:20:53.964Z,0
2023-01-12T21:21:56.396Z,0
2023-01-12T21:22:59.428Z,0
2023-01-12T21:25:06.630Z,0
2023-01-12T21:26:10.688Z,0
2023-01-12T21:27:13.476Z,0
2023-01-12T21:28:16.497Z,0
2023-01-12T21:30:22.267Z,0
2023-01-12T21:32:28.718Z,0
2023-01-12T21:33:32.422Z,0
2023-01-12T21:35:38.985Z,0
2023-01-12T21:37:45.623Z,0
2023-01-12T21:38:51.185Z,0
2023-01-12T21:39:54.520Z,0
2023-01-12T21:40:58.173Z,0
2023-01-12T21:43:05.052Z,0
2023-01-12T21:45:10.387Z,0
2023-01-12T21:46:14.723Z,0
2023-01-12T21:48:21.208Z,0
2023-01-12T21:50:28.469Z,0
2023-01-12T21:51:31.655Z,0
2023-01-12T21:52:35.220Z,0
2023-01-12T21:53:38.620Z,0
2023-01-12T21:55:45.351Z,0
2023-01-12T21:57:52.032Z,0
2023-01-12T21:58:55.759Z,0
2023-01-12T22:01:02.624Z,0
2023-01-12T22:03:09.563Z,0
2023-01-12T22:05:16.317Z,0
2023-01-12T22:06:19.372Z,0
2023-01-12T22:08:25.617Z,0
2023-01-12T22:10:32.872Z,0
2023-01-12T22:12:39.745Z,0
2023-01-12T22:13:43.280Z,0
2023-01-12T22:15:50.054Z,0
2023-01-12T22:17:57.971Z,0
2023-01-12T22:20:03.855Z,0
2023-01-12T22:21:06.917Z,0
2023-01-12T22:23:13.867Z,0
2023-01-12T22:25:20.968Z,0
2023-01-12T22:27:28.734Z,0
2023-01-12T22:28:32.403Z,0
2023-01-12T22:30:39.619Z,0
2023-01-12T22:32:45.806Z,0
2023-01-12T22:34:51.966Z,0
2023-01-12T22:35:55.657Z,0
2023-01-12T22:38:00.798Z,0
2023-01-12T22:40:07.938Z,0
2023-01-12T22:42:14.021Z,0
2023-01-12T22:43:17.583Z,0
2023-01-12T22:45:24.714Z,0
2023-01-12T22:47:49.796Z,0
2023-01-12T22:49:57.079Z,0
2023-01-12T22:52:03.658Z,0
2023-01-12T22:53:06.644Z,0
2023-01-12T22:55:13.316Z,0
2023-01-12T22:57:19.189Z,0
2023-01-12T22:59:26.341Z,0
2023-01-12T23:00:29.346Z,0
2023-01-12T23:02:35.540Z,0
2023-01-12T23:04:42.285Z,0
2023-01-12T23:05:45.825Z,0
2023-01-12T23:06:49.075Z,0
2023-01-12T23:07:52.120Z,0
2023-01-12T23:09:58.822Z,0
2023-01-12T23:11:01.638Z,0
2023-01-12T23:12:04.195Z,0
2023-01-12T23:13:07.792Z,0
2023-01-12T23:15:14.936Z,0
2023-01-12T23:16:18.542Z,0
2023-01-12T23:17:22.061Z,0
2023-01-12T23:18:25.144Z,0
2023-01-12T23:20:31.065Z,0
2023-01-12T23:22:36.947Z,0
2023-01-12T23:23:40.568Z,0
2023-01-12T23:25:47.310Z,0
2023-01-12T23:27:53.400Z,0
2023-01-12T23:28:57.134Z,0
2023-01-12T23:30:00.672Z,0
2023-01-12T23:31:04.408Z,0
2023-01-12T23:33:11.543Z,0
2023-01-12T23:34:14.198Z,0
2023-01-12T23:35:17.691Z,0
2023-01-12T23:36:20.544Z,0
2023-01-12T23:38:28.149Z,0
2023-01-12T23:40:35.336Z,0
2023-01-12T23:41:39.518Z,0
2023-01-12T23:43:46.240Z,0
2023-01-12T23:45:53.268Z,0
2023-01-12T23:48:00.062Z,0
2023-01-12T23:49:03.233Z,0
2023-01-12T23:51:10.934Z,0
2023-01-12T23:53:17.737Z,0
2023-01-12T23:55:24.138Z,0
2023-01-12T23:56:27.258Z,0
2023-01-12T23:58:48.527Z,0
2023-01-12T23:59:52.271Z,0
